Hatsu Ethic — VQFS4 — position and weather

sailwx.info

Track history (hours):
 
Tides and Currents Weather Stations Pressure Air Temp Water Temp Dewpoint Dewpoint Depression Visibility Wind Speed Wind Dir Waves Ship Positions

Hatsu Ethic

Last reported at 2016-May-24 19:33 UTC. Time now 2016-May-24 19:36 UTC.
Position N 22°34' E 120°08'.

Type: Ship (hazmat cat D). MMSI: 235603000.

Date/timePositionNaut miles runAvg speedWind from/ knotsBaromVisibWave heightAir tempDewpointWater temp
2016-May-24 19:33N 22°34' E 120°08'11 1.5
2016-May-24 12:31N 22°33' E 120°19'0 0.0
2016-May-24 11:13N 22°33' E 120°19'0 0.0
2016-May-24 08:19N 22°33' E 120°19'0 0.0
2016-May-24 07:31N 22°33' E 120°19'0 0.0
2016-May-24 06:31N 22°33' E 120°19'0 0.0
2016-May-24 05:31N 22°33' E 120°19'0 0.0
2016-May-24 04:31N 22°33' E 120°19'0 0.0
2016-May-24 03:31N 22°33' E 120°19'0 0.0
2016-May-24 02:31N 22°33' E 120°19'0 0.0
2016-May-24 01:19N 22°33' E 120°19'0 0.0
2016-May-24 00:31N 22°33' E 120°19'0 0.0
2016-May-23 23:19N 22°33' E 120°19'1 0.7
2016-May-23 22:33N 22°33' E 120°19'11 8.5
2016-May-23 21:19N 22°31' E 120°07'1214.6
2016-May-23 20:30N 22°29' E 119°55'31310.1
2016-May-22 13:31N 22°34' E 114°16'0 0.0
2016-May-22 12:19N 22°34' E 114°16'1 1.6
2016-May-22 11:33N 22°34' E 114°17'24 6.1
2016-May-22 07:33N 22°12' E 114°28'2110.1
2016-May-22 05:29N 22°16' E 114°06'4 3.9
2016-May-22 04:30N 22°20' E 114°08'0 0.0
2016-May-22 03:15N 22°20' E 114°08'0 0.0
2016-May-22 01:33N 22°20' E 114°08'0 0.0
2016-May-22 00:21N 22°20' E 114°08'0 0.0
2016-May-21 23:30N 22°20' E 114°08'0 0.0
2016-May-21 22:33N 22°20' E 114°08'0 0.0
2016-May-21 21:33N 22°20' E 114°08'0 0.0
2016-May-21 20:33N 22°20' E 114°08'0 0.0
2016-May-21 19:33N 22°20' E 114°08'0 0.0
2016-May-21 18:33N 22°20' E 114°08'0 0.0
2016-May-21 17:30N 22°20' E 114°08'0 0.0
2016-May-21 16:33N 22°20' E 114°08'0 0.0
2016-May-21 15:33N 22°20' E 114°08'8 6.0
2016-May-21 14:16N 22°13' E 114°10'5 6.3
2016-May-21 13:28N 22°09' E 114°14'1213.6
2016-May-21 12:33N 22°08' E 114°27'28819.2
2016-May-20 21:31N 24°22' E 119°05'2720.0
2016-May-20 20:09N 24°41' E 119°27'  
2016-May-18 04:31N 35°58' E 120°39'  
2016-May-15 08:23N 33°45' E 134°53'1518.0
2016-May-15 07:33N 33°60' E 134°55'1414.1
2016-May-15 06:33N 34°14' E 134°58'1615.9
2016-May-15 05:33N 34°28' E 135°07'1515.3
2016-May-15 04:33N 34°37' E 135°21'3 2.8
2016-May-15 03:31N 34°39' E 135°24'0 0.0
2016-May-15 02:32N 34°39' E 135°24'0 0.0
2016-May-15 01:32N 34°39' E 135°24'0 0.0
2016-May-15 00:31N 34°39' E 135°24'0 0.0
2016-May-14 23:32N 34°39' E 135°24'0 0.0
2016-May-14 22:32N 34°39' E 135°24'7 6.8
2016-May-14 21:34N 34°34' E 135°19'1919.2
2016-May-14 20:33N 34°20' E 135°02'1413.7
2016-May-14 19:33N 34°07' E 134°59'  
Track history (hours):
 
Tides and Currents Weather Stations Pressure Air Temp Water Temp Dewpoint Dewpoint Depression Visibility Wind Speed Wind Dir Waves Ship Positions

Hatsu Ethic

Last reported at 2016-May-24 19:33 UTC. Time now 2016-May-24 19:36 UTC.
Position N 22°34' E 120°08'.

Type: Ship (hazmat cat D). MMSI: 235603000.

Date/timePositionNaut miles runAvg speedWind from/ knotsBaromVisibWave heightAir tempDewpointWater temp
2016-May-24 19:33N 22°34' E 120°08'11 1.5
2016-May-24 12:31N 22°33' E 120°19'0 0.0
2016-May-24 11:13N 22°33' E 120°19'0 0.0
2016-May-24 08:19N 22°33' E 120°19'0 0.0
2016-May-24 07:31N 22°33' E 120°19'0 0.0
2016-May-24 06:31N 22°33' E 120°19'0 0.0
2016-May-24 05:31N 22°33' E 120°19'0 0.0
2016-May-24 04:31N 22°33' E 120°19'0 0.0
2016-May-24 03:31N 22°33' E 120°19'0 0.0
2016-May-24 02:31N 22°33' E 120°19'0 0.0
2016-May-24 01:19N 22°33' E 120°19'0 0.0
2016-May-24 00:31N 22°33' E 120°19'0 0.0
2016-May-23 23:19N 22°33' E 120°19'1 0.7
2016-May-23 22:33N 22°33' E 120°19'11 8.5
2016-May-23 21:19N 22°31' E 120°07'1214.6
2016-May-23 20:30N 22°29' E 119°55'31310.1
2016-May-22 13:31N 22°34' E 114°16'0 0.0
2016-May-22 12:19N 22°34' E 114°16'1 1.6
2016-May-22 11:33N 22°34' E 114°17'24 6.1
2016-May-22 07:33N 22°12' E 114°28'2110.1
2016-May-22 05:29N 22°16' E 114°06'4 3.9
2016-May-22 04:30N 22°20' E 114°08'0 0.0
2016-May-22 03:15N 22°20' E 114°08'0 0.0
2016-May-22 01:33N 22°20' E 114°08'0 0.0
2016-May-22 00:21N 22°20' E 114°08'0 0.0
2016-May-21 23:30N 22°20' E 114°08'0 0.0
2016-May-21 22:33N 22°20' E 114°08'0 0.0
2016-May-21 21:33N 22°20' E 114°08'0 0.0
2016-May-21 20:33N 22°20' E 114°08'0 0.0
2016-May-21 19:33N 22°20' E 114°08'0 0.0
2016-May-21 18:33N 22°20' E 114°08'0 0.0
2016-May-21 17:30N 22°20' E 114°08'0 0.0
2016-May-21 16:33N 22°20' E 114°08'0 0.0
2016-May-21 15:33N 22°20' E 114°08'8 6.0
2016-May-21 14:16N 22°13' E 114°10'5 6.3
2016-May-21 13:28N 22°09' E 114°14'1213.6
2016-May-21 12:33N 22°08' E 114°27'28819.2
2016-May-20 21:31N 24°22' E 119°05'2720.0
2016-May-20 20:09N 24°41' E 119°27'  
2016-May-18 04:31N 35°58' E 120°39'  
2016-May-15 08:23N 33°45' E 134°53'1518.0
2016-May-15 07:33N 33°60' E 134°55'1414.1
2016-May-15 06:33N 34°14' E 134°58'1615.9
2016-May-15 05:33N 34°28' E 135°07'1515.3
2016-May-15 04:33N 34°37' E 135°21'3 2.8
2016-May-15 03:31N 34°39' E 135°24'0 0.0
2016-May-15 02:32N 34°39' E 135°24'0 0.0
2016-May-15 01:32N 34°39' E 135°24'0 0.0
2016-May-15 00:31N 34°39' E 135°24'0 0.0
2016-May-14 23:32N 34°39' E 135°24'0 0.0
2016-May-14 22:32N 34°39' E 135°24'7 6.8
2016-May-14 21:34N 34°34' E 135°19'1919.2
2016-May-14 20:33N 34°20' E 135°02'1413.7
2016-May-14 19:33N 34°07' E 134°59'  

Dump ship's entire track history